createdAt,value
2019-01-28T00:00:39.419Z,0.50
2019-01-28T00:03:27.347Z,0.50
2019-01-28T00:06:15.132Z,0.47
2019-01-28T00:09:04.263Z,0.57
2019-01-28T00:11:52.159Z,0.43
2019-01-28T00:14:40.218Z,0.67
2019-01-28T00:17:28.062Z,0.60
2019-01-28T00:20:15.629Z,0.80
2019-01-28T00:23:03.764Z,0.80
2019-01-28T00:25:52.142Z,0.80
2019-01-28T00:28:40.341Z,1.00
2019-01-28T00:31:28.401Z,0.63
2019-01-28T00:34:15.949Z,0.90
2019-01-28T00:37:04.345Z,1.00
2019-01-28T00:39:52.241Z,0.90
2019-01-28T00:42:40.405Z,0.73
2019-01-28T00:45:28.506Z,1.07
2019-01-28T00:48:16.760Z,0.90
2019-01-28T00:51:04.734Z,0.83
2019-01-28T00:53:52.922Z,1.00
2019-01-28T00:56:41.110Z,1.00
2019-01-28T00:59:29.248Z,0.90
2019-01-28T01:02:17.263Z,0.80
2019-01-28T01:05:06.089Z,1.00
2019-01-28T01:07:54.279Z,0.80
2019-01-28T01:10:42.463Z,0.67
2019-01-28T01:13:30.748Z,0.90
2019-01-28T01:16:18.794Z,0.70
2019-01-28T01:19:07.025Z,0.87
2019-01-28T01:21:54.893Z,0.67
2019-01-28T01:24:43.117Z,0.97
2019-01-28T01:27:30.956Z,0.70
2019-01-28T01:30:18.786Z,0.80
2019-01-28T01:33:06.380Z,0.77
2019-01-28T01:35:54.805Z,0.87
2019-01-28T01:38:43.011Z,0.80
2019-01-28T01:41:31.115Z,1.43
2019-01-28T01:44:19.431Z,1.00
2019-01-28T01:47:07.833Z,0.83
2019-01-28T01:49:55.523Z,0.90
2019-01-28T01:52:43.693Z,0.90
2019-01-28T01:55:31.865Z,1.00
2019-01-28T01:58:19.966Z,0.93
2019-01-28T02:01:07.866Z,1.07
2019-01-28T02:03:55.952Z,0.90
2019-01-28T02:06:44.193Z,1.00
2019-01-28T02:09:32.216Z,0.80
2019-01-28T02:12:20.017Z,0.80
2019-01-28T02:15:10.653Z,1.27
2019-01-28T02:17:58.785Z,0.80
2019-01-28T02:20:46.913Z,1.13
2019-01-28T02:23:35.652Z,1.20
2019-01-28T02:26:23.757Z,0.80
2019-01-28T02:29:11.901Z,0.80
2019-01-28T02:32:00.194Z,0.80
2019-01-28T02:34:47.900Z,0.80
2019-01-28T02:37:36.054Z,0.90
2019-01-28T02:40:23.527Z,0.70
2019-01-28T02:43:11.739Z,0.80
2019-01-28T02:45:59.835Z,1.37
2019-01-28T02:48:47.716Z,0.90
2019-01-28T02:51:35.657Z,1.00
2019-01-28T02:54:23.641Z,1.43
2019-01-28T02:57:11.622Z,0.90
2019-01-28T02:59:59.505Z,0.80
2019-01-28T03:02:47.816Z,0.97
2019-01-28T03:05:35.900Z,0.90
2019-01-28T03:08:24.029Z,0.90
2019-01-28T03:11:12.041Z,1.10
2019-01-28T03:13:59.834Z,0.67
2019-01-28T03:16:47.800Z,1.00
2019-01-28T03:19:36.293Z,0.97
2019-01-28T03:22:24.303Z,1.40
2019-01-28T03:25:12.928Z,0.97
2019-01-28T03:28:00.875Z,0.97
2019-01-28T03:30:48.501Z,0.87
2019-01-28T03:33:36.512Z,1.30
2019-01-28T03:36:23.990Z,0.80
2019-01-28T03:39:11.596Z,0.87
2019-01-28T03:41:59.646Z,0.90
2019-01-28T03:44:47.687Z,0.90
2019-01-28T03:47:35.345Z,1.10
2019-01-28T03:50:23.129Z,0.93
2019-01-28T03:53:12.620Z,1.27
2019-01-28T03:56:00.171Z,0.77
2019-01-28T03:58:47.868Z,1.00
2019-01-28T04:01:35.976Z,0.90
2019-01-28T04:04:23.905Z,1.00
2019-01-28T04:07:12.360Z,0.80
2019-01-28T04:10:00.379Z,1.20
2019-01-28T04:12:48.136Z,0.93
2019-01-28T04:15:36.097Z,1.00
2019-01-28T04:18:24.098Z,0.77
2019-01-28T04:21:11.847Z,0.80
2019-01-28T04:24:00.122Z,0.97
2019-01-28T04:26:48.065Z,0.90
2019-01-28T04:29:36.268Z,0.80
2019-01-28T04:32:24.059Z,0.90
2019-01-28T04:35:11.986Z,0.90
2019-01-28T04:37:59.582Z,0.80
2019-01-28T04:40:47.793Z,1.00
2019-01-28T04:43:35.800Z,0.80
2019-01-28T04:46:23.934Z,0.97
2019-01-28T04:49:12.126Z,1.10
2019-01-28T04:52:00.376Z,0.83
2019-01-28T04:54:48.620Z,0.87
2019-01-28T04:57:36.397Z,0.70
2019-01-28T05:00:25.540Z,0.60
2019-01-28T05:03:13.480Z,0.80
2019-01-28T05:06:01.646Z,0.83
2019-01-28T05:08:49.536Z,1.00
2019-01-28T05:11:37.343Z,0.70
2019-01-28T05:14:25.521Z,0.70
2019-01-28T05:17:13.346Z,1.00
2019-01-28T05:20:01.615Z,0.80
2019-01-28T05:22:49.920Z,0.90
2019-01-28T05:25:38.050Z,0.87
2019-01-28T05:28:26.176Z,0.87
2019-01-28T05:31:14.065Z,0.93
2019-01-28T05:34:02.316Z,1.00
2019-01-28T05:36:50.250Z,0.70
2019-01-28T05:39:38.279Z,0.90
2019-01-28T05:42:26.542Z,0.97
2019-01-28T05:45:15.414Z,0.80
2019-01-28T05:48:03.352Z,1.10
2019-01-28T05:50:51.293Z,1.00
2019-01-28T05:53:39.087Z,1.00
2019-01-28T05:56:27.291Z,0.97
2019-01-28T05:59:15.249Z,0.90
2019-01-28T06:02:03.497Z,0.80
2019-01-28T06:04:51.438Z,0.73
2019-01-28T06:07:39.536Z,0.90
2019-01-28T06:10:27.204Z,0.80
2019-01-28T06:13:15.403Z,1.00
2019-01-28T06:16:03.237Z,0.83
2019-01-28T06:18:50.839Z,0.90
2019-01-28T06:21:39.143Z,0.70
2019-01-28T06:24:27.597Z,0.77
2019-01-28T06:27:15.151Z,1.03
2019-01-28T06:30:03.480Z,0.80
2019-01-28T06:32:51.306Z,1.07
2019-01-28T06:35:39.320Z,1.03
2019-01-28T06:38:27.360Z,1.00
2019-01-28T06:41:15.450Z,1.00
2019-01-28T06:44:02.983Z,1.13
2019-01-28T06:46:51.042Z,1.10
2019-01-28T06:49:38.762Z,1.40
2019-01-28T06:52:26.581Z,1.23
2019-01-28T06:55:14.420Z,0.97
2019-01-28T06:58:02.543Z,1.10
2019-01-28T07:00:50.446Z,1.10
2019-01-28T07:03:38.540Z,1.30
2019-01-28T07:06:26.205Z,1.10
2019-01-28T07:09:14.646Z,1.10
2019-01-28T07:12:02.538Z,1.00
2019-01-28T07:14:50.845Z,1.07
2019-01-28T07:17:38.642Z,1.10
2019-01-28T07:20:30.318Z,1.17
2019-01-28T07:23:18.809Z,1.47
2019-01-28T07:26:06.646Z,1.30
2019-01-28T07:28:54.541Z,1.07
2019-01-28T07:31:42.728Z,1.43
2019-01-28T07:34:30.961Z,0.93
2019-01-28T07:37:18.502Z,1.07
2019-01-28T07:40:07.265Z,1.40
2019-01-28T07:42:55.337Z,1.03
2019-01-28T07:45:45.594Z,1.37
2019-01-28T07:48:32.526Z,1.20
2019-01-28T07:51:20.171Z,1.27
2019-01-28T07:54:08.360Z,1.53
2019-01-28T07:56:56.548Z,1.40
2019-01-28T07:59:44.925Z,1.57
2019-01-28T08:02:32.820Z,1.20
2019-01-28T08:05:20.772Z,1.47
2019-01-28T08:08:08.917Z,1.53
2019-01-28T08:10:56.971Z,1.13
2019-01-28T08:13:44.830Z,1.50
2019-01-28T08:16:33.109Z,1.20
2019-01-28T08:19:21.114Z,1.20
2019-01-28T08:22:09.109Z,1.70
2019-01-28T08:24:56.812Z,1.50
2019-01-28T08:27:45.005Z,1.57
2019-01-28T08:30:35.322Z,1.10
2019-01-28T08:33:23.357Z,1.60
2019-01-28T08:36:11.203Z,1.30
2019-01-28T08:38:59.174Z,1.47
2019-01-28T08:41:47.155Z,1.23
2019-01-28T08:44:35.397Z,1.37
2019-01-28T08:47:23.595Z,1.47
2019-01-28T08:50:14.163Z,1.50
2019-01-28T08:53:02.077Z,1.23
2019-01-28T08:55:49.952Z,1.43
2019-01-28T08:58:37.936Z,1.17
2019-01-28T09:01:26.052Z,1.63
2019-01-28T09:04:13.819Z,1.63
2019-01-28T09:07:01.818Z,1.87
2019-01-28T09:09:49.698Z,1.50
2019-01-28T09:12:37.607Z,1.60
2019-01-28T09:15:26.038Z,1.20
2019-01-28T09:18:14.294Z,1.70
2019-01-28T09:21:02.175Z,1.30
2019-01-28T09:23:50.174Z,1.40
2019-01-28T09:26:38.053Z,1.47
2019-01-28T09:29:26.532Z,1.20
2019-01-28T09:32:14.296Z,1.63
2019-01-28T09:35:02.650Z,1.50
2019-01-28T09:37:50.584Z,1.67
2019-01-28T09:40:38.523Z,1.70
2019-01-28T09:43:26.796Z,1.20
2019-01-28T09:46:14.895Z,1.40
2019-01-28T09:49:02.783Z,1.20
2019-01-28T09:51:51.038Z,1.23
2019-01-28T09:54:39.219Z,1.57
2019-01-28T09:57:27.238Z,1.73
2019-01-28T10:00:22.315Z,1.60
2019-01-28T10:03:10.624Z,1.50
2019-01-28T10:05:58.670Z,1.43
2019-01-28T10:08:46.910Z,1.40
2019-01-28T10:11:35.228Z,1.60
2019-01-28T10:14:23.128Z,1.33
2019-01-28T10:17:11.225Z,1.33
2019-01-28T10:19:59.248Z,1.50
2019-01-28T10:22:47.469Z,1.20
2019-01-28T10:25:36.051Z,1.33
2019-01-28T10:28:24.387Z,1.53
2019-01-28T10:31:12.333Z,1.57
2019-01-28T10:34:00.142Z,1.57
2019-01-28T10:36:48.037Z,1.53
2019-01-28T10:39:36.104Z,1.70
2019-01-28T10:42:23.692Z,1.87
2019-01-28T10:45:12.636Z,1.60
2019-01-28T10:48:01.114Z,1.23
2019-01-28T10:50:49.308Z,1.37
2019-01-28T10:53:37.147Z,1.20
2019-01-28T10:56:24.989Z,1.50
2019-01-28T10:59:13.340Z,1.70
2019-01-28T11:02:01.865Z,1.30
2019-01-28T11:04:49.755Z,1.40
2019-01-28T11:07:37.864Z,1.60
2019-01-28T11:10:26.053Z,1.13
2019-01-28T11:13:14.467Z,1.50
2019-01-28T11:16:02.721Z,1.60
2019-01-28T11:18:57.590Z,1.53
2019-01-28T11:21:40.279Z,1.27
2019-01-28T11:24:28.624Z,1.40
2019-01-28T11:27:16.878Z,1.30
2019-01-28T11:30:05.734Z,1.60
2019-01-28T11:32:53.499Z,1.60
2019-01-28T11:35:41.843Z,1.60
2019-01-28T11:38:30.456Z,1.30
2019-01-28T11:41:18.677Z,1.40
2019-01-28T11:44:07.070Z,1.77
2019-01-28T11:46:55.421Z,1.43
2019-01-28T11:49:43.357Z,1.17
2019-01-28T11:52:31.212Z,1.17
2019-01-28T11:55:19.669Z,1.40
2019-01-28T11:58:08.030Z,1.33
2019-01-28T12:01:24.407Z,1.40
2019-01-28T12:04:12.343Z,1.50
2019-01-28T12:07:00.224Z,1.50
2019-01-28T12:09:48.321Z,1.63
2019-01-28T12:12:37.081Z,1.30
2019-01-28T12:15:25.307Z,1.23
2019-01-28T12:18:13.771Z,1.20
2019-01-28T12:21:01.600Z,1.33
2019-01-28T12:23:50.040Z,1.30
2019-01-28T12:26:37.858Z,1.30
2019-01-28T12:29:25.556Z,1.40
2019-01-28T12:32:13.462Z,1.30
2019-01-28T12:35:01.402Z,1.47
2019-01-28T12:37:49.146Z,1.50
2019-01-28T12:40:36.966Z,1.73
2019-01-28T12:43:24.930Z,1.27
2019-01-28T12:46:13.317Z,1.50
2019-01-28T12:49:00.899Z,1.40
2019-01-28T12:51:48.561Z,1.57
2019-01-28T12:54:36.093Z,1.50
2019-01-28T12:57:24.145Z,1.20
2019-01-28T13:00:16.111Z,1.30
2019-01-28T13:03:04.085Z,1.60
2019-01-28T13:05:52.063Z,1.40
2019-01-28T13:08:39.755Z,1.17
2019-01-28T13:11:28.189Z,1.43
2019-01-28T13:14:16.110Z,1.27
2019-01-28T13:17:04.211Z,1.27
2019-01-28T13:19:53.678Z,1.23
2019-01-28T13:22:44.888Z,1.50
2019-01-28T13:25:31.603Z,1.57
2019-01-28T13:28:19.692Z,1.50
2019-01-28T13:31:07.482Z,1.23
2019-01-28T13:33:55.408Z,1.70
2019-01-28T13:36:43.503Z,1.30
2019-01-28T13:39:31.314Z,1.10
2019-01-28T13:42:19.397Z,1.40
2019-01-28T13:45:08.052Z,1.50
2019-01-28T13:47:56.320Z,1.40
2019-01-28T13:50:44.264Z,1.60
2019-01-28T13:53:32.346Z,1.80
2019-01-28T13:56:21.149Z,1.30
2019-01-28T13:59:16.117Z,1.03
2019-01-28T14:01:59.063Z,1.30
2019-01-28T14:04:47.327Z,1.50
2019-01-28T14:07:35.453Z,1.67
2019-01-28T14:10:23.671Z,1.60
2019-01-28T14:13:11.427Z,1.40
2019-01-28T14:15:59.654Z,1.30
2019-01-28T14:18:47.576Z,1.40
2019-01-28T14:21:35.649Z,1.50
2019-01-28T14:24:23.626Z,1.33
2019-01-28T14:27:11.860Z,1.60
2019-01-28T14:29:59.945Z,1.57
2019-01-28T14:32:48.176Z,1.47
2019-01-28T14:35:36.655Z,1.30
2019-01-28T14:38:25.441Z,2.00
2019-01-28T14:41:13.326Z,1.10
2019-01-28T14:44:01.219Z,1.63
2019-01-28T14:46:48.981Z,1.50
2019-01-28T14:49:36.694Z,1.60
2019-01-28T14:52:25.111Z,1.57
2019-01-28T14:55:12.720Z,1.40
2019-01-28T14:58:01.328Z,1.63
2019-01-28T15:00:49.741Z,1.27
2019-01-28T15:03:37.586Z,1.47
2019-01-28T15:06:26.256Z,1.40
2019-01-28T15:09:14.286Z,1.60
2019-01-28T15:12:02.447Z,1.30
2019-01-28T15:14:50.290Z,1.07
2019-01-28T15:17:38.225Z,1.10
2019-01-28T15:20:26.833Z,1.40
2019-01-28T15:23:14.510Z,1.67
2019-01-28T15:26:02.266Z,1.53
2019-01-28T15:28:50.354Z,1.10
2019-01-28T15:31:38.561Z,1.80
2019-01-28T15:34:26.665Z,1.53
2019-01-28T15:37:14.667Z,1.33
2019-01-28T15:40:02.514Z,1.33
2019-01-28T15:42:50.401Z,1.50
2019-01-28T15:45:40.997Z,1.30
2019-01-28T15:48:29.304Z,1.67
2019-01-28T15:51:17.532Z,1.50
2019-01-28T15:54:05.681Z,1.20
2019-01-28T15:56:53.952Z,1.70
2019-01-28T15:59:42.256Z,1.47
2019-01-28T16:02:30.522Z,1.20
2019-01-28T16:05:18.626Z,1.50
2019-01-28T16:08:07.587Z,1.50
2019-01-28T16:10:55.838Z,1.30
2019-01-28T16:13:44.033Z,1.47
2019-01-28T16:16:31.937Z,1.43
2019-01-28T16:19:19.494Z,1.50
2019-01-28T16:22:08.001Z,1.83
2019-01-28T16:24:55.689Z,1.60
2019-01-28T16:27:43.590Z,1.70
2019-01-28T16:30:31.841Z,1.70
2019-01-28T16:33:19.976Z,2.03
2019-01-28T16:36:08.220Z,1.40
2019-01-28T16:38:56.182Z,2.10
2019-01-28T16:41:43.884Z,1.80
2019-01-28T16:44:32.153Z,1.60
2019-01-28T16:47:20.554Z,1.50
2019-01-28T16:50:09.644Z,1.77
2019-01-28T16:52:57.709Z,1.50
2019-01-28T16:55:45.755Z,1.83
2019-01-28T16:58:33.792Z,1.40
2019-01-28T17:01:21.955Z,1.53
2019-01-28T17:04:09.805Z,1.20
2019-01-28T17:06:57.610Z,1.77
2019-01-28T17:09:45.800Z,1.53
2019-01-28T17:12:34.102Z,1.70
2019-01-28T17:15:22.216Z,1.60
2019-01-28T17:18:10.199Z,1.67
2019-01-28T17:20:58.092Z,1.90
2019-01-28T17:23:46.407Z,1.30
2019-01-28T17:26:34.222Z,1.90
2019-01-28T17:29:22.080Z,2.43
2019-01-28T17:32:09.567Z,2.40
2019-01-28T17:34:57.533Z,1.80
2019-01-28T17:37:45.523Z,1.73
2019-01-28T17:40:33.653Z,1.57
2019-01-28T17:43:21.600Z,1.50
2019-01-28T17:46:09.802Z,1.80
2019-01-28T17:48:58.140Z,1.77
2019-01-28T17:51:46.057Z,1.50
2019-01-28T17:54:33.860Z,1.60
2019-01-28T17:57:21.925Z,1.70
2019-01-28T18:00:29.298Z,1.43
2019-01-28T18:03:10.805Z,1.50
2019-01-28T18:05:58.946Z,1.30
2019-01-28T18:08:46.910Z,1.33
2019-01-28T18:11:34.603Z,1.67
2019-01-28T18:14:22.493Z,1.50
2019-01-28T18:17:10.655Z,1.67
2019-01-28T18:19:58.468Z,1.60
2019-01-28T18:22:47.413Z,1.73
2019-01-28T18:25:35.055Z,1.67
2019-01-28T18:28:22.760Z,1.70
2019-01-28T18:31:10.960Z,1.77
2019-01-28T18:33:58.496Z,2.27
2019-01-28T18:36:46.083Z,1.80
2019-01-28T18:39:34.099Z,2.03
2019-01-28T18:42:21.970Z,1.80
2019-01-28T18:45:18.196Z,1.67
2019-01-28T18:48:01.027Z,2.37
2019-01-28T18:50:49.465Z,1.80
2019-01-28T18:53:37.851Z,1.80
2019-01-28T18:56:25.423Z,2.03
2019-01-28T18:59:13.462Z,1.90
2019-01-28T19:02:01.687Z,1.87
2019-01-28T19:04:49.707Z,1.90
2019-01-28T19:07:45.554Z,1.63
2019-01-28T19:10:38.700Z,2.00
2019-01-28T19:13:45.454Z,1.90
2019-01-28T19:16:46.138Z,2.00
2019-01-28T19:19:55.938Z,2.07
2019-01-28T19:22:43.966Z,2.13
2019-01-28T19:25:31.936Z,2.93
2019-01-28T19:28:20.000Z,1.77
2019-01-28T19:31:08.116Z,2.20
2019-01-28T19:33:56.042Z,1.83
2019-01-28T19:36:44.219Z,2.10
2019-01-28T19:39:32.007Z,2.33
2019-01-28T19:42:19.995Z,1.97
2019-01-28T19:45:11.660Z,2.40
2019-01-28T19:47:59.559Z,2.07
2019-01-28T19:50:47.631Z,2.20
2019-01-28T19:53:35.297Z,2.20
2019-01-28T19:56:23.429Z,2.47
2019-01-28T19:59:11.433Z,2.40
2019-01-28T20:01:59.405Z,2.20
2019-01-28T20:04:47.756Z,2.50
2019-01-28T20:07:35.813Z,2.30
2019-01-28T20:10:23.667Z,2.60
2019-01-28T20:13:11.845Z,2.93
2019-01-28T20:16:00.018Z,2.37
2019-01-28T20:18:48.040Z,2.67
2019-01-28T20:21:36.407Z,2.40
2019-01-28T20:24:23.880Z,2.80
2019-01-28T20:27:11.801Z,2.70
2019-01-28T20:29:59.845Z,2.77
2019-01-28T20:32:47.750Z,2.80
2019-01-28T20:35:35.728Z,3.00
2019-01-28T20:38:24.163Z,2.53
2019-01-28T20:41:12.057Z,2.50
2019-01-28T20:44:00.360Z,3.20
2019-01-28T20:46:48.738Z,3.03
2019-01-28T20:49:36.957Z,2.80
2019-01-28T20:52:24.881Z,3.00
2019-01-28T20:55:13.175Z,2.83
2019-01-28T20:58:01.251Z,2.57
2019-01-28T21:00:49.370Z,2.40
2019-01-28T21:03:37.519Z,3.00
2019-01-28T21:06:25.752Z,3.23
2019-01-28T21:09:13.992Z,3.00
2019-01-28T21:12:01.953Z,2.83
2019-01-28T21:14:49.588Z,2.60
2019-01-28T21:17:37.723Z,2.73
2019-01-28T21:20:25.555Z,2.93
2019-01-28T21:23:13.824Z,3.00
2019-01-28T21:26:02.463Z,2.93
2019-01-28T21:28:50.911Z,2.90
2019-01-28T21:31:38.828Z,2.80
2019-01-28T21:34:26.911Z,2.60
2019-01-28T21:37:26.988Z,3.00
2019-01-28T21:40:15.196Z,3.13
2019-01-28T21:43:02.913Z,2.87
2019-01-28T21:45:50.979Z,2.90
2019-01-28T21:48:38.900Z,3.03
2019-01-28T21:51:26.807Z,3.20
2019-01-28T21:54:14.772Z,3.10
2019-01-28T21:57:02.951Z,3.50
2019-01-28T21:59:50.823Z,3.50
2019-01-28T22:02:39.051Z,2.80
2019-01-28T22:05:28.068Z,3.10
2019-01-28T22:08:15.965Z,3.50
2019-01-28T22:11:03.973Z,3.20
2019-01-28T22:13:52.157Z,3.13
2019-01-28T22:16:40.145Z,3.40
2019-01-28T22:19:28.053Z,2.77
2019-01-28T22:22:16.044Z,3.23
2019-01-28T22:25:04.153Z,3.10
2019-01-28T22:27:57.227Z,3.60
2019-01-28T22:30:42.032Z,3.20
2019-01-28T22:33:29.890Z,3.00
2019-01-28T22:36:17.836Z,2.80
2019-01-28T22:39:09.119Z,2.70
2019-01-28T22:41:56.894Z,2.97
2019-01-28T22:44:45.130Z,2.90
2019-01-28T22:47:32.543Z,2.90
2019-01-28T22:50:21.498Z,3.00
2019-01-28T22:53:09.380Z,2.67
2019-01-28T22:55:57.220Z,2.90
2019-01-28T22:58:45.063Z,3.10
2019-01-28T23:01:36.842Z,3.00
2019-01-28T23:04:24.862Z,3.13
2019-01-28T23:07:12.739Z,3.07
2019-01-28T23:10:00.327Z,3.10
2019-01-28T23:12:48.351Z,2.73
2019-01-28T23:15:36.402Z,3.30
2019-01-28T23:18:24.397Z,3.00
2019-01-28T23:21:12.536Z,3.20
2019-01-28T23:24:00.469Z,3.20
2019-01-28T23:26:48.734Z,3.23
2019-01-28T23:29:36.664Z,3.27
2019-01-28T23:32:24.471Z,3.30
2019-01-28T23:35:12.344Z,3.00
2019-01-28T23:38:00.096Z,3.17
2019-01-28T23:40:47.870Z,3.30
2019-01-28T23:43:35.607Z,3.60
2019-01-28T23:46:24.035Z,3.23
2019-01-28T23:49:13.119Z,3.30
2019-01-28T23:52:01.378Z,3.47
2019-01-28T23:54:49.619Z,3.20
2019-01-28T23:57:37.522Z,3.60
